Time;durP1;ratioP1;P1;durP2;ratioP2;P2;SDS_P1;SDS_P2;PMS_P1;PMS_P2;Temp;Humidity;BMP_temperature;BMP_pressure;BME280_temperature;BME280_humidity;BME280_pressure;Samples;Min_cycle;Max_cycle;Signal;HPM_P1;HPM_P2
2022/12/15 00:39:39;;;;;;;9.82;3.83;;;;;;;;;;5024409;28;20490;-74
2022/12/15 00:42:05;;;;;;;15.90;4.22;;;;;;;;;;5021923;28;20048;-74
2022/12/15 00:44:31;;;;;;;12.30;4.32;;;;;;;;;;5038032;28;20534;-74
2022/12/15 00:46:57;;;;;;;12.70;4.05;;;;;;;;;;5021530;28;20047;-74
2022/12/15 01:22:27;;;;;;;20.25;4.30;;;;;;;;;;5037534;28;20045;-75
2022/12/15 01:24:53;;;;;;;17.30;4.00;;;;;;;;;;5037215;28;20045;-75
2022/12/15 01:27:19;;;;;;;23.95;5.00;;;;;;;;;;5004762;28;20045;-75
2022/12/15 01:29:45;;;;;;;12.13;3.45;;;;;;;;;;5020702;28;20033;-75
2022/12/15 01:32:12;;;;;;;14.50;3.80;;;;;;;;;;5021011;28;20099;-76
2022/12/15 01:34:38;;;;;;;16.67;4.45;;;;;;;;;;5037506;28;20045;-76
2022/12/15 01:37:04;;;;;;;14.48;3.08;;;;;;;;;;5037016;28;20132;-75
2022/12/15 01:40:43;;;;;;;11.63;3.13;;;;;;;;;;5021331;28;20044;-75
2022/12/15 01:42:16;;;;;;;14.55;2.72;;;;;;;;;;5023416;28;20053;-75
2022/12/15 01:44:46;;;;;;;9.85;2.80;;;0.10;99.90;;;;;;5037153;28;20451;-75
2022/12/15 01:47:12;;;;;;;12.00;1.95;;;0.30;99.90;;;;;;5037039;28;20492;-75
2022/12/15 01:49:38;;;;;;;21.02;2.10;;;;;;;;;;5037258;28;20041;-76
2022/12/15 01:52:05;;;;;;;11.70;2.00;;;;;;;;;;5036984;28;20087;-76
2022/12/15 01:54:41;;;;;;;8.65;1.80;;;0.80;99.90;;;;;;5020537;28;20051;-76
2022/12/15 01:57:12;;;;;;;4.35;1.35;;;1.00;99.90;;;;;;5037036;28;20040;-76
2022/12/15 01:59:44;;;;;;;6.63;1.53;;;0.80;99.90;;;;;;5036808;28;20055;-75
2022/12/15 02:02:13;;;;;;;12.43;1.50;;;0.90;99.90;;;;;;5036893;28;20663;-76
2022/12/15 02:04:40;;;;;;;8.77;1.75;;;;;;;;;;5019772;28;20098;-75
2022/12/15 02:07:06;;;;;;;11.38;2.28;;;;;;;;;;5037118;28;20048;-75
2022/12/15 02:09:32;;;;;;;11.27;1.50;;;;;;;;;;5036310;28;20055;-76
2022/12/15 02:12:25;;;;;;;14.88;2.10;;;0.60;99.90;;;;;;5036176;28;20039;-76
2022/12/15 02:15:03;;;;;;;7.25;1.70;;;;;;;;;;5032549;28;20041;-75
2022/12/15 02:17:58;;;;;;;8.20;1.65;;;0.30;99.90;;;;;;5036838;28;20044;-76
2022/12/15 02:20:31;;;;;;;4.03;1.35;;;;;;;;;;5019958;28;20065;-75
2022/12/15 02:22:57;;;;;;;;;;;;;;;;;;5036870;28;20556;-75
2022/12/15 02:25:23;;;;;;;4.05;1.70;;;;;;;;;;5035270;28;19928;-75
2022/12/15 02:28:20;;;;;;;9.18;1.92;;;0.20;99.90;;;;;;5036192;28;20477;-75
2022/12/15 02:31:48;;;;;;;15.27;2.80;;;;;;;;;;5035866;28;20100;-75
2022/12/15 02:33:42;;;;;;;14.60;2.87;;;;;;;;;;5036081;28;20072;-75
2022/12/15 02:36:08;;;;;;;11.18;2.60;;;;;;;;;;5018777;28;20288;-75
2022/12/15 02:38:37;;;;;;;35.22;3.60;;;0.20;99.90;;;;;;5019649;28;20092;-75
2022/12/15 02:41:05;;;;;;;13.93;2.78;;;0.00;99.90;;;;;;5019468;28;20071;-75
2022/12/15 02:43:34;;;;;;;15.40;4.53;;;0.20;99.90;;;;;;5036057;28;20056;-75
2022/12/15 02:46:18;;;;;;;25.45;3.58;;;0.10;99.90;;;;;;5035650;28;20040;-75
2022/12/15 02:48:47;;;;;;;19.98;3.95;;;;;;;;;;5005831;28;20068;-75
2022/12/15 02:51:13;;;;;;;13.98;3.17;;;;;;;;;;5035971;28;20088;-75
2022/12/15 02:53:39;;;;;;;14.27;3.03;;;;;;;;;;5036294;28;20064;-75
2022/12/15 02:56:11;;;;;;;9.55;2.95;;;;;;;;;;5035680;28;20500;-75
2022/12/15 02:58:43;;;;;;;9.65;2.63;;;;;;;;;;5019340;28;20052;-75
2022/12/15 03:01:34;;;;;;;18.60;3.47;;;0.20;99.90;;;;;;5035644;28;20080;-75
2022/12/15 03:04:03;;;;;;;11.90;2.60;;;0.00;99.90;;;;;;5035790;28;20451;-75
2022/12/15 03:06:29;;;;;;;11.30;3.08;;;;;;;;;;5019033;28;20045;-75
2022/12/15 03:08:55;;;;;;;14.30;2.47;;;;;;;;;;5035553;28;20032;-75
2022/12/15 03:11:21;;;;;;;6.60;2.20;;;;;;;;;;5035417;28;20037;-75
2022/12/15 03:13:47;;;;;;;9.45;2.25;;;;;;;;;;5019232;28;20516;-75
2022/12/15 03:16:14;;;;;;;11.63;2.92;;;;;;;;;;5035421;28;20036;-75
2022/12/15 03:18:40;;;;;;;14.88;3.13;;;;;;;;;;5035724;28;20045;-75
2022/12/15 03:21:06;;;;;;;13.73;3.17;;;;;;;;;;5035233;28;20072;-75
2022/12/15 03:23:32;;;;;;;15.88;4.13;;;;;;;;;;5035756;28;20041;-73
2022/12/15 03:25:58;;;;;;;17.58;3.30;;;;;;;;;;5034707;28;20438;-73
2022/12/15 03:28:25;;;;;;;12.20;3.50;;;;;;;;;;5035401;28;20036;-73
2022/12/15 03:30:52;;;;;;;13.52;3.30;;;;;;;;;;5035193;28;20420;-73
2022/12/15 03:33:18;;;;;;;16.15;3.28;;;;;;;;;;5035023;28;20037;-73
2022/12/15 03:35:44;;;;;;;12.13;2.90;;;;;;;;;;5034807;28;20037;-73
2022/12/15 03:38:10;;;;;;;14.38;2.20;;;;;;;;;;5031622;28;20079;-73
2022/12/15 03:40:36;;;;;;;10.00;2.13;;;;;;;;;;5016266;28;20516;-74
2022/12/15 03:43:02;;;;;;;10.35;2.17;;;;;;;;;;5015698;28;20045;-73
2022/12/15 03:45:28;;;;;;;11.57;2.30;;;;;;;;;;5030990;28;20033;-73
2022/12/15 03:47:55;;;;;;;10.77;2.10;;;-0.10;99.90;;;;;;5031794;28;20092;-73
2022/12/15 03:50:25;;;;;;;10.73;1.83;;;-0.10;99.90;;;;;;5032212;28;20441;-73
2022/12/15 03:52:56;;;;;;;4.43;1.75;;;-0.20;99.90;;;;;;5031673;28;20047;-74
2022/12/15 03:55:23;;;;;;;11.10;2.00;;;;;;;;;;5032484;28;20046;-73
2022/12/15 03:57:49;;;;;;;8.88;1.63;;;;;;;;;;5031233;28;20504;-73
2022/12/15 04:00:17;;;;;;;4.78;1.98;;;;;;;;;;5031600;28;20041;-73
2022/12/15 04:02:43;;;;;;;6.45;1.90;;;;;;;;;;5031052;28;20520;-73
2022/12/15 04:05:15;;;;;;;11.27;2.67;;;-0.40;99.90;;;;;;5032206;28;20045;-73
2022/12/15 04:07:42;;;;;;;6.63;2.00;;;;;;;;;;5015098;28;20069;-73
2022/12/15 04:10:08;;;;;;;9.95;2.00;;;;;;;;;;5015550;28;20068;-73
2022/12/15 04:12:34;;;;;;;12.10;2.35;;;;;;;;;;5014515;28;20033;-73
2022/12/15 04:15:00;;;;;;;12.05;3.28;;;;;;;;;;5031498;28;20124;-74
2022/12/15 04:17:26;;;;;;;11.52;2.15;;;;;;;;;;5030308;28;20037;-73
2022/12/15 04:20:10;;;;;;;18.17;2.10;;;;;;;;;;5031832;28;20362;-73
2022/12/15 04:22:41;;;;;;;17.65;3.22;;;-0.30;99.90;;;;;;5031123;28;20505;-73
2022/12/15 05:33:58;;;;;;;12.88;3.20;;;;;;;;;;5037112;28;20041;-75
2022/12/15 05:36:24;;;;;;;9.27;2.80;;;;;;;;;;5035532;28;20044;-76
2022/12/15 05:38:50;;;;;;;15.10;2.95;;;;;;;;;;5033632;28;20061;-75
2022/12/15 05:41:17;;;;;;;13.00;2.78;;;0.20;99.90;;;;;;5033612;28;20050;-75
2022/12/15 05:43:44;;;;;;;17.55;2.50;;;;;;;;;;5033480;28;20041;-75
2022/12/15 05:46:10;;;;;;;8.95;2.55;;;;;;;;;;5033889;28;20041;-75
2022/12/15 05:48:36;;;;;;;14.50;3.10;;;;;;;;;;5033260;28;20391;-75
2022/12/15 05:51:07;;;;;;;14.30;3.50;;;0.20;99.90;;;;;;5033646;28;20283;-75
2022/12/15 05:53:33;;;;;;;4.85;2.17;;;;;;;;;;5033149;28;20048;-75
2022/12/15 05:56:03;;;;;;;7.93;2.40;;;0.20;99.90;;;;;;5033530;28;20052;-75
2022/12/15 05:58:29;;;;;;;19.90;3.13;;;;;;;;;;5033043;28;20045;-75
2022/12/15 06:01:02;;;;;;;12.95;3.33;;;;;;;;;;5016484;28;20522;-73
2022/12/15 06:03:28;;;;;;;15.18;3.45;;;;;;;;;;5033244;28;20048;-73
2022/12/15 06:05:54;;;;;;;12.50;2.65;;;;;;;;;;5033012;28;20045;-73
2022/12/15 06:08:20;;;;;;;9.70;3.08;;;;;;;;;;5032789;28;20029;-73
2022/12/15 06:10:53;;;;;;;10.63;2.78;;;0.00;99.90;;;;;;5033085;28;20041;-73
2022/12/15 06:13:19;;;;;;;12.85;2.70;;;;;;;;;;5033386;28;20037;-73
2022/12/15 06:16:13;;;;;;;11.18;3.20;;;0.10;99.90;;;;;;5016484;28;20041;-73
2022/12/15 06:18:41;;;;;;;22.15;3.65;;;;;;;;;;5016046;28;20053;-73
2022/12/15 06:21:09;;;;;;;14.38;3.22;;;0.20;99.90;;;;;;5033175;28;20092;-73
2022/12/15 06:23:36;;;;;;;7.50;2.80;;;;;;;;;;5033168;28;20045;-73
2022/12/15 06:26:11;;;;;;;15.80;2.88;;;;;;;;;;5032948;28;20126;-73
2022/12/15 06:28:37;;;;;;;11.30;2.88;;;;;;;;;;5032692;28;20048;-73
2022/12/15 06:31:05;;;;;;;11.38;2.58;;;0.20;99.90;;;;;;5032581;28;20033;-73
2022/12/15 06:33:31;;;;;;;15.68;2.55;;;;;;;;;;5032813;28;20505;-73
2022/12/15 06:36:01;;;;;;;26.10;2.63;;;;;;;;;;5016264;28;20489;-73
2022/12/15 06:38:28;;;;;;;18.40;3.17;;;0.10;99.90;;;;;;5032676;28;20057;-73
2022/12/15 06:41:01;;;;;;;28.20;3.28;;;;;;;;;;5032895;28;20060;-73
2022/12/15 06:43:28;;;;;;;14.75;2.95;;;0.40;99.90;;;;;;5033082;28;20044;-73
2022/12/15 06:45:54;;;;;;;9.40;2.45;;;;;;;;;;5016113;28;20064;-74
2022/12/15 06:48:21;;;;;;;15.65;2.63;;;0.30;99.90;;;;;;5033081;28;20074;-73
2022/12/15 06:50:47;;;;;;;15.20;4.07;;;;;;;;;;5031741;28;20552;-73
2022/12/15 06:53:13;;;;;;;22.50;3.72;;;0.40;99.90;;;;;;5032198;28;20508;-73
2022/12/15 06:55:40;;;;;;;14.23;2.97;;;;;;;;;;5015925;28;20048;-73
2022/12/15 06:58:06;;;;;;;13.20;4.05;;;;;;;;;;5032506;28;20079;-73
2022/12/15 07:00:33;;;;;;;15.27;2.83;;;0.30;99.90;;;;;;5032468;28;20248;-73
2022/12/15 07:02:59;;;;;;;22.48;3.28;;;;;;;;;;5016248;28;20053;-73
2022/12/15 07:05:26;;;;;;;13.07;2.90;;;;;;;;;;5032081;28;20053;-72
2022/12/15 07:07:52;;;;;;;20.50;4.43;;;;;;;;;;5033399;28;20046;-73
2022/12/15 07:10:18;;;;;;;21.02;3.53;;;;;;;;;;5031867;28;20107;-72
2022/12/15 07:12:44;;;;;;;10.40;3.28;;;;;;;;;;5032245;28;20041;-73
2022/12/15 07:15:11;;;;;;;18.52;3.08;;;;;;;;;;5031102;28;20041;-73
2022/12/15 07:17:37;;;;;;;10.90;2.58;;;;;;;;;;5023972;28;20052;-73
2022/12/15 07:20:04;;;;;;;8.35;2.50;;;;;;;;;;5032054;28;20103;-74
2022/12/15 07:22:30;;;;;;;15.60;3.30;;;;;;;;;;5032093;28;20117;-73
2022/12/15 07:24:56;;;;;;;16.40;3.05;;;;;;;;;;5015225;28;20045;-73
2022/12/15 07:27:23;;;;;;;14.98;2.95;;;;;;;;;;5032397;28;20037;-72
2022/12/15 07:29:49;;;;;;;9.82;2.70;;;;;;;;;;5032239;28;20065;-73
2022/12/15 07:32:15;;;;;;;11.35;2.60;;;;;;;;;;5031428;28;20029;-73
2022/12/15 07:34:41;;;;;;;17.85;3.50;;;;;;;;;;5031513;28;20042;-73
2022/12/15 07:37:07;;;;;;;14.45;3.15;;;;;;;;;;5031219;28;20054;-73
2022/12/15 07:39:33;;;;;;;23.40;4.40;;;;;;;;;;5056189;28;20049;-73
2022/12/15 07:42:00;;;;;;;13.85;4.03;;;;;;;;;;5014314;28;20081;-73
2022/12/15 07:44:26;;;;;;;16.42;3.47;;;;;;;;;;5058485;28;20179;-73
2022/12/15 07:46:52;;;;;;;14.57;3.28;;;;;;;;;;5029928;28;20030;-73
2022/12/15 07:49:19;;;;;;;12.93;3.65;;;;;;;;;;5051998;28;20477;-73
2022/12/15 07:51:45;;;;;;;9.63;3.13;;;;;;;;;;5054704;28;20049;-73
2022/12/15 07:54:11;;;;;;;11.73;3.17;;;;;;;;;;5029466;28;20037;-73
2022/12/15 07:56:38;;;;;;;11.85;3.05;;;0.70;99.90;;;;;;5026362;28;20117;-73
2022/12/15 07:59:05;;;;;;;21.08;3.55;;;;;;;;;;5032756;28;20477;-73
2022/12/15 08:01:31;;;;;;;13.27;3.13;;;;;;;;;;5027239;28;20043;-73
2022/12/15 08:03:57;;;;;;;14.35;3.38;;;;;;;;;;5027565;28;20378;-73
2022/12/15 08:06:23;;;;;;;14.07;3.60;;;;;;;;;;5027866;28;20477;-74
2022/12/15 08:08:49;;;;;;;14.85;3.20;;;;;;;;;;5053457;28;20043;-74
2022/12/15 08:11:16;;;;;;;19.60;3.92;;;;;;;;;;5027783;28;20033;-74
2022/12/15 08:13:43;;;;;;;15.00;3.22;;;;;;;;;;5028476;28;20034;-73
2022/12/15 08:16:11;;;;;;;12.38;3.60;;;;;;;;;;5029704;28;20048;-73
2022/12/15 08:18:37;;;;;;;9.60;2.55;;;;;;;;;;5012042;28;20112;-73
2022/12/15 08:21:04;;;;;;;20.40;3.35;;;;;;;;;;5028979;28;20165;-73
2022/12/15 08:23:31;;;;;;;16.17;3.80;;;1.00;99.90;;;;;;5034259;28;20041;-73
2022/12/15 08:26:04;;;;;;;17.60;3.60;;;;;;;;;;5056395;28;20052;-73
2022/12/15 08:28:31;;;;;;;16.27;3.53;;;1.10;99.90;;;;;;5014525;28;20087;-73
2022/12/15 08:31:15;;;;;;;13.60;3.63;;;;;;;;;;5033485;28;20037;-73
2022/12/15 08:33:41;;;;;;;12.45;4.10;;;;;;;;;;5016613;28;20053;-73
2022/12/15 08:36:09;;;;;;;24.20;3.47;;;0.80;99.90;;;;;;5033425;28;20045;-73
2022/12/15 08:38:37;;;;;;;10.90;3.38;;;0.90;99.90;;;;;;5033480;28;20062;-73
2022/12/15 08:41:30;;;;;;;11.50;3.67;;;0.80;99.90;;;;;;5017163;28;20040;-72
2022/12/15 08:43:57;;;;;;;;;;;1.00;99.90;;;;;;5030942;28;20463;-75
2022/12/15 08:46:24;;;;;;;9.18;3.88;;;;;;;;;;5016372;28;20407;-75
2022/12/15 08:48:51;;;;;;;16.70;3.97;;;;;;;;;;5017011;28;20234;-75
2022/12/15 08:51:18;;;;;;;14.00;3.78;;;;;;;;;;5015913;28;20026;-75
2022/12/15 08:53:44;;;;;;;14.55;4.65;;;;;;;;;;5032809;28;20059;-75
2022/12/15 08:56:16;;;;;;;16.08;4.10;;;0.90;99.90;;;;;;5032658;28;20482;-74
2022/12/15 08:58:43;;;;;;;21.35;4.35;;;;;;;;;;5032860;28;20045;-75
2022/12/15 09:01:13;;;;;;;13.82;5.05;;;;;;;;;;5033326;28;20366;-70
2022/12/15 09:03:39;;;;;;;15.40;3.63;;;;;;;;;;5032891;28;20075;-74
2022/12/15 09:06:07;;;;;;;17.33;4.57;;;;;;;;;;5032552;28;20477;-74
2022/12/15 09:08:34;;;;;;;14.70;4.13;;;;;;;;;;5032798;28;20077;-73
2022/12/15 09:11:00;;;;;;;11.35;4.75;;;;;;;;;;5016270;28;20037;-75
2022/12/15 09:13:26;;;;;;;27.02;4.43;;;;;;;;;;5033043;28;20485;-73
2022/12/15 09:16:07;;;;;;;19.58;3.75;;;1.20;99.90;;;;;;5031450;28;20493;-74
2022/12/15 09:18:34;;;;;;;19.13;4.22;;;;;;;;;;5032153;28;20120;-74
2022/12/15 09:21:04;;;;;;;16.02;3.80;;;1.60;99.90;;;;;;5032794;28;20041;-74
2022/12/15 09:23:30;;;;;;;15.48;4.00;;;;;;;;;;5032793;28;20393;-74
2022/12/15 09:26:07;;;;;;;14.02;3.47;;;;;;;;;;5015872;28;20068;-75
2022/12/15 09:28:33;;;;;;;17.40;3.80;;;;;;;;;;5032155;28;20148;-74
2022/12/15 09:31:07;;;;;;;18.77;3.53;;;;;;;;;;5015731;28;20120;-74
2022/12/15 09:33:33;;;;;;;15.05;3.40;;;;;;;;;;5014656;28;20132;-74
2022/12/15 09:35:59;;;;;;;30.33;4.30;;;;;;;;;;5032145;28;20497;-75
2022/12/15 09:38:25;;;;;;;21.45;4.22;;;;;;;;;;5015696;28;20085;-74
2022/12/15 09:40:51;;;;;;;18.20;3.30;;;;;;;;;;5032304;28;20072;-75
2022/12/15 09:43:23;;;;;;;10.98;3.35;;;;;;;;;;5032842;28;20056;-75
2022/12/15 09:46:02;;;;;;;9.00;3.35;;;1.70;99.90;;;;;;5031857;28;20044;-74
2022/12/15 09:48:35;;;;;;;16.45;3.45;;;1.90;99.90;;;;;;5032085;28;20037;-75
2022/12/15 09:51:03;;;;;;;22.13;4.43;;;;;;;;;;5014412;28;20061;-74
2022/12/15 09:53:29;;;;;;;15.40;3.20;;;;;;;;;;5032297;28;20033;-75
2022/12/15 09:55:59;;;;;;;20.52;3.28;;;;;;;;;;5031927;28;20049;-74
2022/12/15 09:58:46;;;;;;;22.58;3.55;;;;;;;;;;5031978;28;20094;-74
2022/12/15 10:01:19;;;;;;;30.88;4.35;;;;;;;;;;5030762;28;20056;-74
2022/12/15 10:04:04;;;;;;;18.90;4.55;;;;;;;;;;5031754;28;20067;-74
2022/12/15 10:06:38;;;;;;;16.83;3.33;;;;;;;;;;5028859;28;20041;-74
2022/12/15 10:09:13;;;;;;;13.88;3.42;;;;;;;;;;5030747;28;20037;-75
2022/12/15 10:11:46;;;;;;;16.73;4.13;;;;;;;;;;5031260;28;20859;-74
2022/12/15 10:14:50;;;;;;;14.32;3.88;;;2.40;99.90;;;;;;5030072;28;20116;-75
2022/12/15 10:17:24;;;;;;;9.98;3.22;;;;;;;;;;5028225;28;20152;-74
2022/12/15 10:19:56;;;;;;;10.98;2.97;;;;;;;;;;5029486;28;20466;-75
2022/12/15 10:22:26;;;;;;;15.63;3.22;;;;;;;;;;5031062;28;20041;-75
2022/12/15 10:24:53;;;;;;;15.13;3.95;;;;;;;;;;5016370;28;20559;-75
2022/12/15 10:27:31;;;;;;;16.38;3.95;;;;;;;;;;5033262;28;20037;-75
2022/12/15 10:30:01;;;;;;;17.50;3.47;;;;;;;;;;5032082;28;20029;-75
2022/12/15 10:32:30;;;;;;;16.58;4.05;;;;;;;;;;5031400;28;20112;-75
2022/12/15 10:34:57;;;;;;;16.67;3.30;;;;;;;;;;5031053;28;20033;-75
2022/12/15 10:37:23;;;;;;;14.55;5.05;;;;;;;;;;5031464;28;20045;-74
2022/12/15 10:39:50;;;;;;;15.20;3.90;;;2.50;99.90;;;;;;5031480;28;20045;-75
2022/12/15 10:42:20;;;;;;;24.08;4.22;;;;;;;;;;5031487;28;20073;-74
2022/12/15 10:44:48;;;;;;;13.80;3.88;;;2.60;99.90;;;;;;5013807;28;20037;-74
2022/12/15 10:47:15;;;;;;;13.73;3.72;;;;;;;;;;5014660;28;20377;-74
2022/12/15 10:49:41;;;;;;;13.25;3.92;;;;;;;;;;5031009;28;20430;-74
2022/12/15 10:52:26;;;;;;;17.88;4.25;;;2.60;99.90;;;;;;5031608;28;20033;-74
2022/12/15 10:54:53;;;;;;;21.05;4.13;;;2.80;99.90;;;;;;5031221;28;20042;-74
2022/12/15 10:57:30;;;;;;;16.65;3.92;;;2.90;99.90;;;;;;5031045;28;20501;-74
2022/12/15 11:00:15;;;;;;;16.75;3.60;;;;;;;;;;5028665;28;20098;-74
2022/12/15 11:02:41;;;;;;;18.45;4.68;;;;;;;;;;5030280;28;20441;-74
2022/12/15 11:05:16;;;;;;;15.70;3.67;;;;;;;;;;5031111;28;20076;-74
2022/12/15 11:07:45;;;;;;;13.25;3.95;;;;;;;;;;5028900;28;20041;-74
2022/12/15 11:10:18;;;;;;;14.05;3.28;;;3.00;99.90;;;;;;5011033;28;20120;-75
2022/12/15 11:13:11;;;;;;;22.58;3.55;;;3.00;99.90;;;;;;5028827;28;20498;-75
2022/12/15 11:15:39;;;;;;;14.75;3.58;;;;;;;;;;5013830;28;20084;-75
2022/12/15 11:18:28;;;;;;;10.98;2.72;;;3.20;99.90;;;;;;5030632;28;20037;-75
2022/12/15 11:21:00;;;;;;;20.40;4.00;;;;;;;;;;5029743;28;20055;-75
2022/12/15 11:23:26;;;;;;;18.40;2.83;;;;;;;;;;5030546;28;20482;-75
2022/12/15 11:26:00;;;;;;;16.98;3.25;;;3.60;99.90;;;;;;5031088;28;20037;-75
2022/12/15 11:28:41;;;;;;;13.93;3.10;;;3.60;99.90;;;;;;5030518;28;21296;-75
2022/12/15 11:31:30;;;;;;;13.15;3.25;;;;;;;;;;5037539;28;20128;-77
2022/12/15 11:33:56;;;;;;;18.85;3.10;;;;;;;;;;5038483;28;20038;-76
2022/12/15 11:36:26;;;;;;;16.40;3.95;;;;;;;;;;5031018;28;20045;-75
2022/12/15 11:38:58;;;;;;;11.80;2.97;;;;;;;;;;5029939;28;20054;-81
2022/12/15 11:41:24;;;;;;;;;;;;;;;;;;5030936;28;20167;-80
2022/12/15 11:44:08;;;;;;;14.82;2.90;;;;;;;;;;5030536;28;20000;-79
2022/12/15 11:46:46;;;;;;;24.75;4.43;;;4.30;99.90;;;;;;5029897;28;20041;-79
2022/12/15 11:49:42;;;;;;;14.07;2.72;;;;;;;;;;5029198;28;20440;-79
2022/12/15 11:52:14;;;;;;;8.82;2.20;;;;;;;;;;5028826;28;20033;-79
2022/12/15 11:54:41;;;;;;;13.55;2.60;;;;;;;;;;5029241;28;20033;-78
2022/12/15 11:57:46;;;;;;;15.65;2.75;;;4.50;99.90;;;;;;5031452;28;20037;-78
2022/12/15 12:00:18;;;;;;;10.98;2.80;;;4.50;99.90;;;;;;5026391;28;20429;-78
2022/12/15 12:02:56;;;;;;;30.90;3.53;;;;;;;;;;5032988;28;20060;-78
2022/12/15 12:05:29;;;;;;;9.98;2.50;;;;;;;;;;5034142;28;20044;-79
2022/12/15 12:08:04;;;;;;;20.02;2.83;;;4.50;99.90;;;;;;5034228;28;20060;-77
2022/12/15 12:10:30;;;;;;;17.30;3.13;;;;;;;;;;5034001;28;20123;-77
2022/12/15 12:13:30;;;;;;;6.28;2.47;;;4.50;99.90;;;;;;5017501;28;20080;-78
2022/12/15 12:16:08;;;;;;;8.52;2.90;;;;;;;;;;5000725;28;20053;-78
2022/12/15 12:18:49;;;;;;;11.30;2.90;;;;;;;;;;5035369;28;20037;-78
2022/12/15 12:21:18;;;;;;;29.63;3.15;;;;;;;;;;5035649;28;20037;-80
2022/12/15 12:23:47;;;;;;;16.40;2.80;;;;;;;;;;4999746;28;20053;-78
2022/12/15 12:26:38;;;;;;;25.15;4.82;;;4.30;99.90;;;;;;5020131;28;20409;-77
2022/12/15 12:29:17;;;;;;;16.75;2.50;;;;;;;;;;5033508;28;20155;-78
2022/12/15 12:32:06;;;;;;;16.20;4.38;;;4.10;99.90;;;;;;5032845;28;20513;-78
2022/12/15 12:34:55;;;;;;;8.23;2.58;;;;;;;;;;5032335;28;20099;-78
2022/12/15 12:37:27;;;;;;;19.33;3.70;;;;;;;;;;5033883;28;20803;-78
2022/12/15 12:39:59;;;;;;;12.68;3.65;;;4.00;99.90;;;;;;5033542;28;20041;-78
2022/12/15 12:42:31;;;;;;;15.43;3.65;;;;;;;;;;5035340;28;20041;-79
2022/12/15 12:44:57;;;;;;;13.85;2.97;;;;;;;;;;5017258;28;20456;-78
2022/12/15 12:47:28;;;;;;;33.83;3.88;;;4.20;99.90;;;;;;5036321;28;20029;-78
2022/12/15 12:49:59;;;;;;;17.10;3.45;;;;;;;;;;5031982;28;20037;-78
2022/12/15 12:52:32;;;;;;;27.00;4.00;;;3.90;99.90;;;;;;5036359;28;20029;-79
2022/12/15 12:54:59;;;;;;;;;;;3.90;99.90;;;;;;5032279;28;20080;-79
2022/12/15 12:57:48;;;;;;;20.45;4.93;;;3.70;99.90;;;;;;5029396;28;19931;-79
2022/12/15 13:00:21;;;;;;;18.13;4.30;;;;;;;;;;5032108;28;20044;-79
2022/12/15 13:02:52;;;;;;;19.00;3.80;;;;;;;;;;5010838;28;20041;-79
2022/12/15 13:05:25;;;;;;;17.60;3.35;;;;;;;;;;5034789;28;20599;-79
2022/12/15 13:08:04;;;;;;;16.88;4.20;;;3.90;99.90;;;;;;5024225;28;20436;-79
2022/12/15 13:10:31;;;;;;;10.85;3.35;;;;;;;;;;5035036;28;20060;-79
2022/12/15 13:12:58;;;;;;;19.50;3.67;;;;;;;;;;5032831;28;20029;-78
2022/12/15 13:15:30;;;;;;;17.08;3.85;;;;;;;;;;5035259;28;20044;-79
2022/12/15 13:17:56;;;;;;;16.83;3.97;;;;;;;;;;5036385;28;20435;-78
2022/12/15 13:20:34;;;;;;;15.68;3.70;;;3.70;99.90;;;;;;5035954;28;20583;-78
2022/12/15 13:23:33;;;;;;;19.35;4.25;;;;;;;;;;5035572;28;20038;-79
2022/12/15 13:25:59;;;;;;;21.42;4.13;;;;;;;;;;5024566;28;20139;-78
2022/12/15 13:28:37;;;;;;;18.15;3.67;;;;;;;;;;5036595;28;20035;-79
2022/12/15 13:31:16;;;;;;;16.95;4.18;;;;;;;;;;5035894;28;20043;-78
2022/12/15 13:33:49;;;;;;;16.50;3.85;;;;;;;;;;5036169;28;20439;-79
2022/12/15 13:36:33;;;;;;;15.70;3.55;;;;;;;;;;5019521;28;20037;-80
2022/12/15 13:38:59;;;;;;;10.35;3.42;;;;;;;;;;5035821;28;20135;-79
2022/12/15 13:41:25;;;;;;;11.00;3.63;;;;;;;;;;5036248;28;20041;-79
2022/12/15 13:43:53;;;;;;;19.92;4.40;;;4.10;99.90;;;;;;5035618;28;20041;-78
2022/12/15 13:46:32;;;;;;;19.17;3.85;;;4.00;99.90;;;;;;5035494;28;20076;-79
2022/12/15 13:49:12;;;;;;;21.10;5.00;;;4.00;99.90;;;;;;5033318;28;20040;-78
2022/12/15 13:51:42;;;;;;;12.82;5.00;;;4.10;99.90;;;;;;5035467;28;20041;-79
2022/12/15 13:54:08;;;;;;;18.65;4.95;;;;;;;;;;5036102;28;20033;-79
2022/12/15 13:56:45;;;;;;;13.05;5.40;;;;;;;;;;5035406;28;20048;-80
2022/12/15 13:59:25;;;;;;;23.35;6.50;;;;;;;;;;5017974;28;20029;-80
2022/12/15 14:01:51;;;;;;;22.00;5.00;;;3.90;99.90;;;;;;5034226;28;20048;-81
2022/12/15 14:04:18;;;;;;;17.13;5.82;;;3.80;99.90;;;;;;5035344;28;20558;-80
2022/12/15 14:06:55;;;;;;;11.00;2.25;;;;;;;;;;5035435;28;20033;-80
2022/12/15 14:09:31;;;;;;;7.20;1.98;;;3.50;99.90;;;;;;5034376;28;20068;-79
2022/12/15 14:11:57;;;;;;;9.50;2.40;;;;;;;;;;5034814;28;20068;-79
2022/12/15 14:14:34;;;;;;;11.98;2.75;;;3.50;99.90;;;;;;5035501;28;20029;-78
2022/12/15 14:17:02;;;;;;;10.02;2.38;;;;;;;;;;5033933;28;20055;-77
2022/12/15 14:19:45;;;;;;;7.95;2.00;;;3.50;99.90;;;;;;5035189;28;20037;-78
2022/12/15 14:22:17;;;;;;;6.05;2.28;;;;;;;;;;5034194;28;20041;-78
2022/12/15 14:24:45;;;;;;;8.85;2.60;;;;;;;;;;5030624;28;20040;-77
2022/12/15 14:27:26;;;;;;;9.20;3.38;;;3.30;99.90;;;;;;5033489;28;20029;-77
2022/12/15 14:30:14;;;;;;;15.77;2.78;;;3.40;99.90;;;;;;5042221;28;20036;-77
2022/12/15 14:32:41;;;;;;;9.82;2.22;;;;;;;;;;5034495;28;20443;-77
2022/12/15 14:35:16;;;;;;;10.80;3.25;;;;;;;;;;5030530;28;20102;-77
2022/12/15 14:37:42;;;;;;;13.88;2.65;;;;;;;;;;5033176;28;20088;-77
2022/12/15 14:40:16;;;;;;;14.77;3.13;;;;;;;;;;5037876;28;20059;-77
2022/12/15 14:42:50;;;;;;;12.00;2.13;;;;;;;;;;5129899;27;20402;-77
2022/12/15 14:45:23;;;;;;;6.72;2.03;;;3.30;99.90;;;;;;5120291;27;20039;-77
2022/12/15 14:48:09;;;;;;;9.05;2.50;;;;;;;;;;5136196;27;20072;-77
2022/12/15 14:50:35;;;;;;;19.92;2.55;;;;;;;;;;5096586;28;20376;-76
2022/12/15 14:53:10;;;;;;;6.15;1.90;;;3.10;99.90;;;;;;5093608;28;20040;-76
2022/12/15 14:55:39;;;;;;;6.63;2.53;;;;;;;;;;5114230;28;20047;-76
2022/12/15 14:58:30;;;;;;;5.43;2.03;;;3.20;99.90;;;;;;5110923;28;20046;-76
2022/12/15 15:00:57;;;;;;;14.73;2.35;;;;;;;;;;5115752;27;20114;-76
2022/12/15 15:03:34;;;;;;;8.52;2.00;;;3.00;99.90;;;;;;5094084;28;20035;-76
2022/12/15 15:06:17;;;;;;;11.35;2.17;;;3.00;99.90;;;;;;5098373;28;20467;-76
2022/12/15 15:08:51;;;;;;;4.40;2.47;;;3.00;99.90;;;;;;5121664;27;20106;-76
2022/12/15 15:11:17;;;;;;;11.32;2.40;;;;;;;;;;5092803;28;20070;-76
2022/12/15 15:13:44;;;;;;;10.75;2.25;;;3.10;99.90;;;;;;5091912;28;20105;-76
2022/12/15 15:16:18;;;;;;;9.30;2.50;;;3.00;99.90;;;;;;5108751;28;20032;-76
2022/12/15 15:18:48;;;;;;;9.90;2.13;;;;;;;;;;5075096;28;20487;-76
2022/12/15 15:21:16;;;;;;;7.90;2.20;;;;;;;;;;5110075;28;20075;-76
2022/12/15 15:24:00;;;;;;;10.38;2.17;;;3.00;99.90;;;;;;5115255;28;20042;-76
2022/12/15 15:26:26;;;;;;;9.18;2.45;;;;;;;;;;5129530;28;20093;-75
2022/12/15 15:28:53;;;;;;;7.68;2.22;;;;;;;;;;5127730;28;20509;-75
2022/12/15 15:31:26;;;;;;;7.68;2.10;;;;;;;;;;5126797;28;20051;-75
2022/12/15 15:33:55;;;;;;;7.60;2.17;;;;;;;;;;5125993;28;20073;-76
2022/12/15 15:36:22;;;;;;;10.23;2.30;;;;;;;;;;5127601;28;20453;-77
2022/12/15 15:38:48;;;;;;;3.83;1.92;;;;;;;;;;5126983;28;20035;-77
2022/12/15 15:41:29;;;;;;;6.00;1.80;;;2.70;99.90;;;;;;5108909;28;20403;-77
2022/12/15 15:44:00;;;;;;;7.32;2.00;;;2.70;99.90;;;;;;5117319;28;20123;-77
2022/12/15 15:46:35;;;;;;;4.90;2.00;;;2.70;99.90;;;;;;5115833;28;20035;-77
2022/12/15 15:49:07;;;;;;;7.65;3.35;;;2.50;99.90;;;;;;5129627;27;20039;-77
2022/12/15 15:51:34;;;;;;;7.88;2.50;;;2.60;99.90;;;;;;5110721;28;20119;-77
2022/12/15 15:54:12;;;;;;;11.32;2.85;;;;;;;;;;5116854;28;20122;-77
2022/12/15 15:56:40;;;;;;;18.10;3.92;;;;;;;;;;5112266;28;20047;-77
2022/12/15 15:59:11;;;;;;;7.53;2.92;;;2.50;99.90;;;;;;5098902;28;20043;-77
2022/12/15 16:01:38;;;;;;;7.60;2.70;;;;;;;;;;5096741;28;20044;-77
2022/12/15 16:04:05;;;;;;;14.35;2.95;;;;;;;;;;5113371;28;20118;-77
2022/12/15 16:06:31;;;;;;;10.23;3.08;;;;;;;;;;5092865;28;20506;-78
2022/12/15 16:08:58;;;;;;;9.00;3.10;;;;;;;;;;5115491;28;20388;-78
2022/12/15 16:11:27;;;;;;;6.88;2.50;;;2.40;99.90;;;;;;5079236;28;20040;-79
2022/12/15 16:13:53;;;;;;;8.23;2.40;;;;;;;;;;5081494;28;20047;-79
2022/12/15 16:16:21;;;;;;;6.40;2.53;;;;;;;;;;5108482;28;20043;-79
2022/12/15 16:18:48;;;;;;;4.90;2.63;;;;;;;;;;5097808;28;20044;-79
2022/12/15 16:21:15;;;;;;;7.50;2.75;;;2.30;99.90;;;;;;5094398;28;20036;-79
2022/12/15 16:23:43;;;;;;;13.13;3.13;;;2.30;99.90;;;;;;5079893;28;20036;-79
2022/12/15 16:26:15;;;;;;;7.40;2.72;;;2.20;99.90;;;;;;5095553;28;20122;-79
2022/12/15 16:28:41;;;;;;;4.20;2.30;;;;;;;;;;5079517;28;20042;-79
2022/12/15 16:31:31;;;;;;;7.57;2.65;;;2.40;99.90;;;;;;5100164;28;20043;-79
2022/12/15 16:33:57;;;;;;;5.03;2.00;;;;;;;;;;5082672;28;20044;-79
2022/12/15 16:36:23;;;;;;;13.95;2.83;;;;;;;;;;5077495;28;20097;-79
2022/12/15 16:38:50;;;;;;;5.22;2.70;;;;;;;;;;5096288;28;20040;-80
2022/12/15 16:41:17;;;;;;;8.32;2.33;;;;;;;;;;5102677;28;20054;-79
2022/12/15 16:43:43;;;;;;;8.55;2.83;;;2.30;99.90;;;;;;5082982;28;20058;-78